Time;durP1;ratioP1;P1;durP2;ratioP2;P2;SDS_P1;SDS_P2;PMS_P1;PMS_P2;Temp;Humidity;BMP_temperature;BMP_pressure;BME280_temperature;BME280_humidity;BME280_pressure;Samples;Min_cycle;Max_cycle;Signal;HPM_P1;HPM_P2
2022/09/14 00:01:33;;;;;;;7.97;1.90;;;15.90;99.90;;;;;;5011962;28;20228;-76
2022/09/14 00:04:02;;;;;;;5.63;1.73;;;15.90;99.90;;;;;;5012898;28;20235;-76
2022/09/14 00:06:29;;;;;;;6.85;1.92;;;15.90;99.90;;;;;;5012961;28;20576;-75
2022/09/14 00:08:57;;;;;;;4.85;1.52;;;15.90;99.90;;;;;;5013822;28;20628;-76
2022/09/14 00:11:25;;;;;;;4.15;1.77;;;15.80;99.90;;;;;;5013718;28;20213;-76
2022/09/14 00:13:51;;;;;;;7.28;1.52;;;15.80;99.90;;;;;;5014132;28;20191;-75
2022/09/14 00:16:24;;;;;;;3.95;1.65;;;15.80;99.90;;;;;;5013465;28;20291;-75
2022/09/14 00:19:04;;;;;;;5.43;1.60;;;15.80;99.90;;;;;;5012931;28;20227;-76
2022/09/14 00:21:29;;;;;;;8.13;1.90;;;15.80;99.90;;;;;;5008779;28;20229;-77
2022/09/14 00:23:55;;;;;;;5.18;1.80;;;15.70;99.90;;;;;;5013198;28;20693;-76
2022/09/14 00:26:22;;;;;;;5.70;1.48;;;15.60;99.90;;;;;;5014390;28;20257;-76
2022/09/14 00:28:50;;;;;;;5.68;1.55;;;15.70;99.90;;;;;;4998135;28;20219;-75
2022/09/14 00:31:17;;;;;;;8.25;1.88;;;15.60;99.90;;;;;;5013451;28;20216;-76
2022/09/14 00:33:43;;;;;;;5.22;1.60;;;15.60;99.90;;;;;;5014499;28;20659;-75
2022/09/14 00:36:12;;;;;;;4.38;1.52;;;15.60;99.90;;;;;;5014705;28;20730;-74
2022/09/14 00:38:38;;;;;;;5.80;1.55;;;15.60;99.90;;;;;;4996887;28;20228;-75
2022/09/14 00:41:07;;;;;;;8.60;1.80;;;15.60;99.90;;;;;;4997278;28;20675;-76
2022/09/14 00:43:57;;;;;;;8.95;1.65;;;15.60;99.90;;;;;;5015358;28;20634;-76
2022/09/14 00:46:25;;;;;;;4.68;1.73;;;15.60;99.90;;;;;;4997099;28;20209;-76
2022/09/14 00:48:52;;;;;;;4.57;1.38;;;15.60;99.90;;;;;;5015925;28;20280;-75
2022/09/14 00:51:19;;;;;;;7.30;2.08;;;15.60;99.90;;;;;;5015838;28;20636;-77
2022/09/14 00:53:45;;;;;;;5.55;2.15;;;15.60;99.90;;;;;;5015595;28;20216;-75
2022/09/14 00:56:12;;;;;;;7.28;1.45;;;15.50;99.90;;;;;;5016263;28;20173;-76
2022/09/14 00:58:38;;;;;;;7.00;1.67;;;15.50;99.90;;;;;;5012576;28;20236;-75
2022/09/14 01:01:03;;;;;;;7.53;2.20;;;15.50;99.90;;;;;;5012737;28;20595;-76
2022/09/14 01:03:29;;;;;;;4.32;2.13;;;15.50;99.90;;;;;;5015551;28;20196;-75
2022/09/14 01:06:42;;;;;;;7.90;2.35;;;15.50;99.90;;;;;;5014923;28;20216;-76
2022/09/14 01:09:23;;;;;;;8.43;1.83;;;15.40;99.90;;;;;;5006529;28;20213;-76
2022/09/14 01:12:20;;;;;;;6.20;2.03;;;15.30;99.90;;;;;;5013490;28;20204;-76
2022/09/14 01:15:04;;;;;;;5.30;1.63;;;15.30;99.90;;;;;;4988741;28;20216;-76
2022/09/14 01:17:33;;;;;;;10.15;2.00;;;15.30;99.90;;;;;;5014910;28;20184;-76
2022/09/14 01:20:15;;;;;;;7.30;1.98;;;15.20;99.90;;;;;;5013913;28;20205;-77
2022/09/14 01:22:48;;;;;;;8.57;2.65;;;15.30;99.90;;;;;;5014849;28;20228;-77
2022/09/14 01:25:37;;;;;;;4.97;1.65;;;15.40;99.90;;;;;;4996572;28;20209;-76
2022/09/14 01:28:22;;;;;;;4.90;2.28;;;15.40;99.90;;;;;;5009275;28;20216;-76
2022/09/14 01:30:51;;;;;;;6.18;1.95;;;15.30;99.90;;;;;;5011709;28;20219;-76
2022/09/14 01:33:24;;;;;;;7.25;2.45;;;15.40;99.90;;;;;;5009701;28;20622;-76
2022/09/14 01:35:56;;;;;;;5.30;1.70;;;15.30;99.90;;;;;;5011479;28;20213;-76
2022/09/14 01:38:37;;;;;;;7.20;2.10;;;15.30;99.90;;;;;;4986967;28;20229;-76
2022/09/14 01:41:06;;;;;;;5.55;1.88;;;15.30;99.90;;;;;;5011573;28;20200;-77
2022/09/14 01:43:37;;;;;;;7.20;1.73;;;15.30;99.90;;;;;;4991820;28;20252;-78
2022/09/14 01:46:11;;;;;;;13.20;2.20;;;15.30;99.90;;;;;;5014725;28;20196;-77
2022/09/14 01:48:43;;;;;;;4.97;2.03;;;15.30;99.90;;;;;;5010843;28;20215;-76
2022/09/14 01:51:14;;;;;;;6.43;2.42;;;15.20;99.90;;;;;;5007608;28;20239;-76
2022/09/14 01:53:48;;;;;;;6.70;1.90;;;15.30;99.90;;;;;;5011398;28;20228;-77
2022/09/14 01:56:37;;;;;;;5.47;1.73;;;15.20;99.90;;;;;;5011467;28;20195;-77
2022/09/14 01:59:12;;;;;;;7.03;1.88;;;15.10;99.90;;;;;;4994311;28;20595;-77
2022/09/14 02:01:49;;;;;;;7.25;1.80;;;15.20;99.90;;;;;;5008432;28;20214;-76
2022/09/14 02:04:21;;;;;;;6.43;1.95;;;15.20;99.90;;;;;;5011093;28;20231;-76
2022/09/14 02:06:48;;;;;;;10.10;2.00;;;15.20;99.90;;;;;;5007081;28;20778;-77
2022/09/14 02:09:20;;;;;;;3.55;1.80;;;15.10;99.90;;;;;;5002938;28;20630;-76
2022/09/14 02:11:46;;;;;;;7.63;2.30;;;15.10;99.90;;;;;;5011538;28;20564;-77
2022/09/14 02:14:11;;;;;;;4.80;1.92;;;15.00;99.90;;;;;;5009134;28;20188;-78
2022/09/14 02:16:38;;;;;;;5.60;1.95;;;15.00;99.90;;;;;;5012739;28;20279;-76
2022/09/14 02:19:04;;;;;;;6.45;1.50;;;15.00;99.90;;;;;;5011921;28;20718;-77
2022/09/14 02:21:31;;;;;;;11.73;2.47;;;15.00;99.90;;;;;;5011480;28;20205;-77
2022/09/14 02:23:58;;;;;;;4.75;1.90;;;15.00;99.90;;;;;;5011970;28;20631;-77
2022/09/14 02:26:25;;;;;;;7.43;2.55;;;15.00;99.90;;;;;;5012073;28;20248;-76
2022/09/14 02:28:54;;;;;;;5.28;1.92;;;15.00;99.90;;;;;;4993899;28;20188;-78
2022/09/14 02:31:39;;;;;;;7.55;1.80;;;14.90;99.90;;;;;;5010349;28;20215;-77
2022/09/14 02:34:52;;;;;;;5.40;2.00;;;14.90;99.90;;;;;;5007822;28;20208;-77
2022/09/14 02:37:48;;;;;;;8.52;2.20;;;14.90;99.90;;;;;;5009030;28;20564;-78
2022/09/14 02:40:33;;;;;;;10.43;2.25;;;14.90;99.90;;;;;;4990244;28;20210;-77
2022/09/14 02:43:20;;;;;;;7.97;2.00;;;14.90;99.90;;;;;;5010183;28;20217;-77
2022/09/14 02:46:06;;;;;;;6.15;2.17;;;14.90;99.90;;;;;;5008604;28;20781;-77
2022/09/14 02:48:51;;;;;;;14.02;2.45;;;14.90;99.90;;;;;;5005865;28;20908;-78
2022/09/14 02:51:29;;;;;;;6.63;2.05;;;14.80;99.90;;;;;;5006352;28;20213;-77
2022/09/14 02:54:03;;;;;;;5.65;2.42;;;14.80;99.90;;;;;;5010433;28;20209;-79
2022/09/14 02:56:29;;;;;;;3.10;1.67;;;14.70;99.90;;;;;;4991219;28;20185;-78
2022/09/14 02:58:55;;;;;;;2.95;1.80;;;14.70;99.90;;;;;;5011189;28;20216;-77
2022/09/14 03:01:22;;;;;;;4.47;1.70;;;14.70;99.90;;;;;;4991695;28;20256;-77
2022/09/14 03:03:48;;;;;;;7.10;2.42;;;14.60;99.90;;;;;;5008099;28;20212;-77
2022/09/14 03:06:14;;;;;;;10.43;2.42;;;14.70;99.90;;;;;;5009589;28;20201;-77
2022/09/14 03:08:40;;;;;;;5.97;2.30;;;14.60;99.90;;;;;;5010777;28;20205;-78
2022/09/14 03:11:07;;;;;;;6.07;1.80;;;14.60;99.90;;;;;;4997491;28;20188;-77
2022/09/14 03:13:34;;;;;;;6.80;2.13;;;14.60;99.90;;;;;;5018027;28;20205;-77
2022/09/14 03:16:05;;;;;;;8.32;2.13;;;14.60;99.90;;;;;;5013095;28;20205;-77
2022/09/14 03:18:30;;;;;;;4.88;1.63;;;14.50;99.90;;;;;;5015602;28;20224;-78
2022/09/14 03:21:07;;;;;;;10.75;2.33;;;14.60;99.90;;;;;;5015947;28;20212;-77
2022/09/14 03:23:37;;;;;;;5.53;1.77;;;14.50;99.90;;;;;;5011149;28;20669;-77
2022/09/14 03:26:08;;;;;;;9.52;2.70;;;14.50;99.90;;;;;;4996653;28;20651;-78
2022/09/14 03:28:34;;;;;;;4.60;1.83;;;14.50;99.90;;;;;;5014054;28;20205;-77
2022/09/14 03:31:01;;;;;;;9.43;2.03;;;14.50;99.90;;;;;;5013707;28;20715;-77
2022/09/14 03:33:27;;;;;;;7.68;1.92;;;14.60;99.90;;;;;;5013769;28;20232;-77
2022/09/14 03:35:52;;;;;;;11.32;2.30;;;14.60;99.90;;;;;;5010921;28;20229;-77
2022/09/14 03:38:18;;;;;;;6.00;1.90;;;14.60;99.90;;;;;;5009042;28;20247;-78
2022/09/14 03:40:44;;;;;;;8.05;2.15;;;14.60;99.90;;;;;;5009802;28;20251;-77
2022/09/14 03:43:11;;;;;;;8.65;2.42;;;14.60;99.90;;;;;;5014272;28;20724;-78
2022/09/14 03:45:37;;;;;;;6.22;2.75;;;14.60;99.90;;;;;;5015640;28;20197;-77
2022/09/14 03:48:04;;;;;;;9.50;2.70;;;14.60;99.90;;;;;;5015916;28;20209;-76
2022/09/14 03:50:30;;;;;;;4.55;2.05;;;14.60;99.90;;;;;;4992150;28;20743;-77
2022/09/14 03:52:56;;;;;;;5.53;2.30;;;14.50;99.90;;;;;;5015407;28;20188;-77
2022/09/14 03:55:22;;;;;;;6.47;1.98;;;14.50;99.90;;;;;;5017092;28;20296;-79
2022/09/14 03:57:47;;;;;;;4.68;2.00;;;14.50;99.90;;;;;;5016303;28;20224;-79
2022/09/14 04:00:14;;;;;;;6.97;2.03;;;14.50;99.90;;;;;;5013882;28;20236;-78
2022/09/14 04:02:40;;;;;;;3.50;1.80;;;14.50;99.90;;;;;;5015589;28;20228;-78
2022/09/14 04:05:05;;;;;;;9.05;2.38;;;14.50;99.90;;;;;;5015477;28;20169;-78
2022/09/14 04:07:31;;;;;;;7.10;2.50;;;14.40;99.90;;;;;;4995494;28;20621;-78
2022/09/14 04:09:57;;;;;;;5.85;2.33;;;14.40;99.90;;;;;;5014064;28;20220;-78
2022/09/14 04:12:23;;;;;;;6.45;2.22;;;14.40;99.90;;;;;;4992921;28;20206;-78
2022/09/14 04:14:48;;;;;;;7.88;2.08;;;14.30;99.90;;;;;;5015568;28;20220;-77
2022/09/14 04:17:15;;;;;;;7.10;2.20;;;14.40;99.90;;;;;;5014223;28;20170;-77
2022/09/14 04:19:41;;;;;;;6.65;2.33;;;14.30;99.90;;;;;;5010422;28;20726;-78
2022/09/14 04:22:07;;;;;;;8.60;2.45;;;14.30;99.90;;;;;;5004096;28;20204;-78
2022/09/14 04:24:32;;;;;;;6.60;2.50;;;14.30;99.90;;;;;;4995276;28;20367;-77
2022/09/14 04:26:58;;;;;;;9.25;2.67;;;14.30;99.90;;;;;;5008714;28;20205;-78
2022/09/14 04:29:24;;;;;;;4.25;1.98;;;14.30;99.90;;;;;;4986950;28;20200;-78
2022/09/14 04:31:49;;;;;;;5.60;2.65;;;14.40;99.90;;;;;;5007622;28;20201;-79
2022/09/14 04:34:15;;;;;;;9.55;2.33;;;14.40;99.90;;;;;;5009339;28;20563;-79
2022/09/14 04:36:41;;;;;;;5.57;1.90;;;14.40;99.90;;;;;;4993438;28;20204;-78
2022/09/14 04:39:06;;;;;;;5.43;1.77;;;14.40;99.90;;;;;;5008061;28;20272;-80
2022/09/14 04:41:32;;;;;;;8.20;2.30;;;14.40;99.90;;;;;;5009353;28;20173;-77
2022/09/14 04:43:59;;;;;;;9.60;2.75;;;14.40;99.90;;;;;;5010738;28;20188;-78
2022/09/14 04:46:30;;;;;;;7.82;2.38;;;14.40;99.90;;;;;;5009290;28;20239;-78
2022/09/14 04:48:57;;;;;;;8.90;2.63;;;14.40;99.90;;;;;;4988689;28;20636;-78
2022/09/14 04:51:26;;;;;;;6.25;2.40;;;14.50;99.90;;;;;;4990644;28;20602;-78
2022/09/14 04:53:55;;;;;;;4.28;2.42;;;14.50;99.90;;;;;;5007754;28;20212;-78
2022/09/14 04:56:22;;;;;;;5.20;2.38;;;14.50;99.90;;;;;;5005393;28;20173;-77
2022/09/14 04:58:51;;;;;;;6.15;2.35;;;14.50;99.90;;;;;;5008226;28;20208;-78
2022/09/14 05:01:20;;;;;;;7.72;2.30;;;14.60;99.90;;;;;;4990862;28;20296;-78
2022/09/14 05:03:46;;;;;;;5.85;1.98;;;14.60;99.90;;;;;;5040829;23;20720;-71
2022/09/14 05:06:14;;;;;;;5.35;2.00;;;14.60;99.90;;;;;;5038792;28;20218;-72
2022/09/14 05:08:41;;;;;;;7.53;2.90;;;14.70;99.90;;;;;;5040812;28;20211;-70
2022/09/14 05:11:08;;;;;;;3.60;1.88;;;14.80;99.90;;;;;;5020644;28;20173;-71
2022/09/14 05:13:34;;;;;;;5.43;2.08;;;14.80;99.90;;;;;;5036928;28;20230;-71
2022/09/14 05:16:17;;;;;;;6.68;2.20;;;14.80;99.90;;;;;;5037033;28;20636;-71
2022/09/14 05:18:43;;;;;;;7.72;2.30;;;14.80;99.90;;;;;;5010483;28;20710;-71
2022/09/14 05:21:11;;;;;;;6.93;2.30;;;14.80;99.90;;;;;;5038811;28;20216;-71
2022/09/14 05:23:37;;;;;;;7.53;3.15;;;14.70;99.90;;;;;;5017514;28;20212;-71
2022/09/14 05:26:04;;;;;;;3.63;1.95;;;14.70;99.90;;;;;;5021683;28;20202;-70
2022/09/14 05:28:30;;;;;;;8.45;2.25;;;14.80;99.90;;;;;;5037462;28;20306;-70
2022/09/14 05:30:56;;;;;;;5.25;2.38;;;14.80;99.90;;;;;;5037407;28;20219;-71
2022/09/14 05:33:22;;;;;;;11.75;3.38;;;14.90;99.90;;;;;;5019581;28;20623;-70
2022/09/14 05:35:48;;;;;;;6.82;2.25;;;15.00;99.90;;;;;;5022276;28;20686;-70
2022/09/14 05:38:14;;;;;;;8.52;2.38;;;15.10;99.90;;;;;;5020858;28;20666;-70
2022/09/14 05:40:40;;;;;;;7.68;2.28;;;15.10;99.90;;;;;;5039483;28;20274;-70
2022/09/14 05:43:06;;;;;;;4.80;1.80;;;15.20;99.90;;;;;;5034785;28;20628;-71
2022/09/14 05:45:32;;;;;;;8.00;2.22;;;15.20;99.90;;;;;;5040976;28;20196;-71
2022/09/14 05:48:05;;;;;;;8.95;2.47;;;15.30;99.90;;;;;;5006717;28;20212;-70
2022/09/14 05:50:32;;;;;;;8.20;3.38;;;15.50;99.90;;;;;;5032632;28;20230;-70
2022/09/14 05:52:57;;;;;;;11.02;2.85;;;15.50;99.90;;;;;;5036235;28;20280;-70
2022/09/14 05:55:23;;;;;;;8.95;2.72;;;15.50;99.90;;;;;;5031682;28;20291;-70
2022/09/14 05:57:49;;;;;;;26.50;4.60;;;15.60;99.90;;;;;;5036532;28;20200;-71
2022/09/14 06:00:16;;;;;;;13.02;3.75;;;15.60;99.90;;;;;;5033448;28;20200;-71
2022/09/14 06:02:49;;;;;;;9.25;2.63;;;15.70;99.90;;;;;;5034008;28;20224;-69
2022/09/14 06:05:15;;;;;;;10.10;2.95;;;15.70;99.90;;;;;;5036301;28;20222;-70
2022/09/14 06:07:42;;;;;;;21.60;5.65;;;15.70;99.90;;;;;;5014232;28;20209;-71
2022/09/14 06:10:08;;;;;;;6.60;2.58;;;15.70;99.90;;;;;;5018180;28;20204;-71
2022/09/14 06:12:34;;;;;;;6.20;2.92;;;15.80;99.90;;;;;;5030198;28;20610;-69
2022/09/14 06:14:59;;;;;;;5.82;2.70;;;16.30;99.90;;;;;;5029884;28;20212;-70
2022/09/14 06:17:25;;;;;;;7.10;2.70;;;16.40;99.90;;;;;;5036424;28;20211;-71
2022/09/14 06:19:50;;;;;;;8.88;2.25;;;16.50;99.90;;;;;;5033180;28;20227;-70
2022/09/14 06:22:16;;;;;;;4.93;2.00;;;16.80;99.90;;;;;;5037446;28;20570;-72
2022/09/14 06:24:42;;;;;;;4.53;2.20;;;17.00;99.90;;;;;;5036825;28;20593;-71
2022/09/14 06:27:08;;;;;;;5.97;2.30;;;17.10;99.90;;;;;;5036668;28;20212;-71
2022/09/14 06:29:34;;;;;;;5.20;2.00;;;17.10;99.90;;;;;;5021615;28;20964;-71
2022/09/14 06:32:00;;;;;;;12.75;2.50;;;17.30;99.90;;;;;;5037402;28;20188;-69
2022/09/14 06:34:25;;;;;;;4.55;2.20;;;17.70;99.90;;;;;;5040176;28;20209;-70
2022/09/14 06:36:51;;;;;;;6.93;1.88;;;18.50;99.90;;;;;;5019929;28;20328;-72
2022/09/14 06:39:16;;;;;;;7.30;2.17;;;19.10;99.90;;;;;;5035166;28;20215;-70
2022/09/14 06:41:42;;;;;;;4.22;2.15;;;19.80;99.90;;;;;;5034275;28;20235;-71
2022/09/14 06:44:08;;;;;;;5.25;2.22;;;20.40;99.90;;;;;;5035569;28;20253;-70
2022/09/14 06:46:34;;;;;;;6.00;2.08;;;21.30;99.90;;;;;;5034434;28;20214;-70
2022/09/14 06:49:07;;;;;;;7.43;2.53;;;21.70;99.90;;;;;;5019491;28;20325;-69
2022/09/14 06:51:34;;;;;;;5.32;2.20;;;21.50;99.90;;;;;;5033614;28;20254;-69
2022/09/14 06:53:59;;;;;;;6.07;2.38;;;21.00;99.90;;;;;;5036029;28;20215;-70
2022/09/14 06:56:26;;;;;;;4.97;2.80;;;20.70;99.90;;;;;;5033782;28;20573;-68
2022/09/14 06:58:52;;;;;;;8.48;2.67;;;20.50;99.90;;;;;;5019829;28;20193;-69
2022/09/14 07:01:19;;;;;;;4.95;2.53;;;21.10;99.90;;;;;;5033130;28;20236;-68
2022/09/14 07:03:46;;;;;;;11.23;2.45;;;21.00;99.90;;;;;;5037405;28;20231;-68
2022/09/14 07:06:20;;;;;;;3.50;1.90;;;21.50;99.90;;;;;;5026396;28;20212;-67
2022/09/14 07:08:47;;;;;;;7.65;2.30;;;21.80;99.90;;;;;;5015215;28;20204;-68
2022/09/14 07:11:15;;;;;;;4.97;2.50;;;21.90;99.90;;;;;;5034298;28;20578;-68
2022/09/14 07:13:41;;;;;;;7.55;2.70;;;21.50;99.90;;;;;;5036383;28;20240;-70
2022/09/14 07:16:07;;;;;;;8.95;2.47;;;21.00;99.90;;;;;;5015952;28;20293;-72
2022/09/14 07:18:34;;;;;;;7.93;2.13;;;20.60;99.90;;;;;;5032583;28;20232;-69
2022/09/14 07:21:08;;;;;;;7.45;2.58;;;20.40;99.90;;;;;;5018332;28;20748;-69
2022/09/14 07:23:37;;;;;;;10.40;2.55;;;20.00;99.90;;;;;;5017765;28;20219;-69
2022/09/14 07:26:06;;;;;;;6.90;2.22;;;19.80;99.90;;;;;;5031969;28;20180;-69
2022/09/14 07:28:33;;;;;;;5.97;1.88;;;19.90;99.90;;;;;;5034651;28;20235;-69
2022/09/14 07:30:59;;;;;;;6.15;1.88;;;20.10;99.90;;;;;;5034881;28;20231;-69
2022/09/14 07:33:25;;;;;;;10.05;2.33;;;20.60;99.90;;;;;;5034601;28;20217;-69
2022/09/14 07:35:51;;;;;;;6.20;2.28;;;21.00;99.90;;;;;;5035565;28;20212;-69
2022/09/14 07:38:17;;;;;;;5.22;2.28;;;20.90;99.90;;;;;;5032708;28;20571;-70
2022/09/14 07:40:43;;;;;;;10.90;2.70;;;20.90;99.90;;;;;;5037834;28;20225;-69
2022/09/14 07:43:09;;;;;;;7.70;2.13;;;21.20;99.90;;;;;;5033532;28;20618;-69
2022/09/14 07:45:36;;;;;;;6.30;1.95;;;21.60;99.90;;;;;;5039680;28;20681;-69
2022/09/14 07:48:01;;;;;;;7.28;2.38;;;22.00;99.90;;;;;;5015232;28;20220;-68
2022/09/14 07:50:27;;;;;;;9.63;3.00;;;22.90;99.90;;;;;;5015225;28;20550;-70
2022/09/14 07:52:52;;;;;;;8.43;2.13;;;23.60;99.90;;;;;;5035517;28;20666;-69
2022/09/14 07:55:18;;;;;;;7.68;1.98;;;24.00;99.90;;;;;;5034537;28;20216;-69
2022/09/14 07:57:45;;;;;;;7.13;2.53;;;23.80;99.90;;;;;;5034687;28;20207;-69
2022/09/14 08:00:11;;;;;;;5.95;2.97;;;23.60;99.90;;;;;;5035329;28;20612;-69
2022/09/14 08:02:37;;;;;;;4.70;2.05;;;23.20;99.90;;;;;;5042286;28;20234;-70
2022/09/14 08:05:03;;;;;;;9.60;3.08;;;23.00;99.90;;;;;;5018716;28;20183;-69
2022/09/14 08:07:28;;;;;;;9.35;2.72;;;22.30;99.90;;;;;;5036121;28;20269;-69
2022/09/14 08:09:54;;;;;;;5.97;2.70;;;22.00;99.90;;;;;;5022568;28;20207;-69
2022/09/14 08:12:20;;;;;;;10.68;2.47;;;22.50;99.90;;;;;;5038315;28;20670;-69
2022/09/14 08:14:45;;;;;;;9.70;4.75;;;23.00;99.90;;;;;;5027692;28;20328;-69
2022/09/14 08:17:11;;;;;;;13.25;6.18;;;23.00;99.90;;;;;;5028151;28;20198;-69
2022/09/14 08:19:37;;;;;;;7.63;3.42;;;22.80;99.90;;;;;;5036383;28;20900;-68
2022/09/14 08:22:03;;;;;;;6.07;2.97;;;22.90;99.90;;;;;;5015990;28;20787;-69
2022/09/14 08:24:29;;;;;;;8.00;2.63;;;22.90;99.90;;;;;;5039662;28;20200;-69
2022/09/14 08:26:55;;;;;;;9.70;3.33;;;22.90;99.90;;;;;;5040584;28;20207;-68
2022/09/14 08:29:21;;;;;;;9.45;3.70;;;22.70;99.90;;;;;;5034862;28;20270;-69
2022/09/14 08:31:47;;;;;;;7.80;3.08;;;22.70;99.90;;;;;;5032969;28;20310;-69
2022/09/14 08:34:14;;;;;;;9.35;3.15;;;22.80;99.90;;;;;;5040895;28;20303;-69
2022/09/14 08:36:41;;;;;;;8.10;3.90;;;23.00;99.90;;;;;;5042249;28;20203;-68
2022/09/14 08:39:09;;;;;;;12.18;5.78;;;22.90;99.90;;;;;;5036213;28;20577;-69
2022/09/14 08:41:50;;;;;;;7.43;3.10;;;23.10;99.90;;;;;;5038074;28;20665;-69
2022/09/14 08:44:41;;;;;;;9.60;2.88;;;23.10;99.90;;;;;;5035404;28;20570;-69
2022/09/14 08:47:20;;;;;;;7.50;2.47;;;23.10;99.90;;;;;;5038190;28;20287;-68
2022/09/14 08:49:53;;;;;;;6.43;2.75;;;23.00;99.90;;;;;;5036146;28;20204;-69
2022/09/14 08:52:28;;;;;;;10.73;4.03;;;22.80;99.90;;;;;;5039786;28;20200;-69
2022/09/14 08:54:57;;;;;;;10.57;3.78;;;22.50;99.90;;;;;;5002978;28;20217;-69
2022/09/14 08:57:42;;;;;;;13.05;6.53;;;22.40;99.90;;;;;;5037025;28;20254;-70
2022/09/14 09:00:11;;;;;;;13.90;4.43;;;22.00;99.90;;;;;;5033613;28;20220;-69
2022/09/14 09:02:55;;;;;;;13.32;3.60;;;21.60;99.90;;;;;;5040395;28;20246;-70
2022/09/14 09:05:51;;;;;;;8.65;2.85;;;21.50;99.90;;;;;;5032937;28;20921;-70
2022/09/14 09:08:30;;;;;;;9.95;3.63;;;21.30;99.90;;;;;;5039275;28;20618;-68
2022/09/14 09:10:59;;;;;;;7.78;2.90;;;21.20;99.90;;;;;;5041045;28;20252;-69
2022/09/14 09:13:30;;;;;;;9.15;3.47;;;21.20;99.90;;;;;;5034441;28;20224;-71
2022/09/14 09:16:05;;;;;;;15.38;7.28;;;21.10;99.90;;;;;;5037080;28;20208;-69
2022/09/14 09:18:39;;;;;;;14.32;5.10;;;21.00;99.90;;;;;;5016766;28;20235;-69
2022/09/14 09:21:12;;;;;;;10.00;2.65;;;20.90;99.90;;;;;;5033033;28;20204;-68
2022/09/14 09:23:39;;;;;;;11.45;2.55;;;20.40;99.90;;;;;;5018295;28;20218;-68
2022/09/14 09:26:09;;;;;;;23.38;14.02;;;20.40;99.90;;;;;;5035131;28;20180;-68
2022/09/14 09:28:42;;;;;;;8.73;2.70;;;20.60;99.90;;;;;;5039899;28;20679;-68
2022/09/14 09:31:10;;;;;;;10.27;2.47;;;20.50;99.90;;;;;;5036967;28;20592;-68
2022/09/14 09:33:36;;;;;;;10.27;3.30;;;20.50;99.90;;;;;;5041025;28;20291;-68
2022/09/14 09:36:02;;;;;;;9.27;2.70;;;20.80;99.90;;;;;;5023450;28;20569;-68
2022/09/14 09:38:28;;;;;;;8.15;2.97;;;21.10;99.90;;;;;;5035391;28;20553;-68
2022/09/14 09:41:10;;;;;;;10.15;2.80;;;21.20;99.90;;;;;;5020514;28;20164;-67
2022/09/14 09:43:57;;;;;;;9.68;2.35;;;21.60;99.90;;;;;;5023979;28;20651;-67
2022/09/14 09:46:23;;;;;;;8.85;2.90;;;22.20;99.90;;;;;;5041785;28;20204;-68
2022/09/14 09:48:49;;;;;;;5.53;2.10;;;22.00;99.90;;;;;;5038645;28;20633;-68
2022/09/14 09:51:25;;;;;;;13.45;6.97;;;22.00;99.90;;;;;;5036612;28;20208;-68
2022/09/14 09:53:54;;;;;;;8.00;2.70;;;21.90;99.90;;;;;;5037816;28;20226;-68
2022/09/14 09:56:24;;;;;;;6.70;3.28;;;21.60;99.90;;;;;;5013198;28;20554;-68
2022/09/14 09:58:50;;;;;;;9.38;4.10;;;21.60;99.90;;;;;;5037095;28;20202;-69
2022/09/14 10:01:28;;;;;;;10.43;3.25;;;21.50;99.90;;;;;;5035706;28;20290;-68
2022/09/14 10:04:02;;;;;;;13.80;7.10;;;21.70;99.90;;;;;;5020270;28;20231;-68
2022/09/14 10:06:28;;;;;;;6.05;2.90;;;21.60;99.90;;;;;;5034562;28;20216;-68
2022/09/14 10:08:56;;;;;;;8.25;2.33;;;21.50;99.90;;;;;;5035806;28;20240;-68
2022/09/14 10:11:35;;;;;;;5.90;2.42;;;21.10;99.90;;;;;;5040166;28;20168;-68
2022/09/14 10:14:03;;;;;;;5.13;1.80;;;20.70;99.90;;;;;;5007437;28;20200;-68
2022/09/14 10:16:37;;;;;;;11.38;4.47;;;20.70;99.90;;;;;;5018181;28;20232;-68
2022/09/14 10:19:19;;;;;;;15.30;8.60;;;20.80;99.90;;;;;;5005148;28;20311;-68
2022/09/14 10:22:29;;;;;;;8.90;3.88;;;20.80;99.90;;;;;;5016827;28;20721;-67
2022/09/14 10:25:13;;;;;;;7.03;2.97;;;20.80;99.90;;;;;;4957495;28;20867;-68
2022/09/14 10:27:44;;;;;;;8.77;2.55;;;20.80;99.90;;;;;;4961280;28;20205;-70
2022/09/14 10:30:19;;;;;;;5.35;1.70;;;20.80;99.90;;;;;;4994669;28;20291;-68
2022/09/14 10:32:58;;;;;;;7.97;2.40;;;20.90;99.90;;;;;;5032379;28;20214;-69
2022/09/14 10:35:33;;;;;;;7.53;2.60;;;21.00;99.90;;;;;;5038761;28;20171;-68
2022/09/14 10:38:18;;;;;;;4.70;2.30;;;21.20;99.90;;;;;;5033105;28;20204;-68
2022/09/14 10:40:51;;;;;;;9.32;3.95;;;21.30;99.90;;;;;;5038803;28;20215;-68
2022/09/14 10:43:46;;;;;;;6.85;1.75;;;21.40;99.90;;;;;;5035570;28;20212;-68
2022/09/14 10:46:19;;;;;;;7.82;1.90;;;21.70;99.90;;;;;;5039188;28;20228;-67
2022/09/14 10:49:07;;;;;;;7.97;2.63;;;22.10;99.90;;;;;;5038126;28;20590;-68
2022/09/14 10:51:48;;;;;;;9.80;4.40;;;22.40;99.90;;;;;;5040056;28;20287;-68
2022/09/14 10:54:32;;;;;;;6.47;2.88;;;22.60;99.90;;;;;;5035815;28;20208;-68
2022/09/14 10:57:25;;;;;;;7.72;2.30;;;22.90;99.90;;;;;;5033869;28;20230;-71
2022/09/14 11:00:02;;;;;;;6.22;2.03;;;23.20;99.90;;;;;;5022626;28;20236;-70
2022/09/14 11:02:50;;;;;;;7.90;2.33;;;23.50;99.90;;;;;;5013567;28;20208;-70
2022/09/14 11:05:30;;;;;;;5.75;1.98;;;23.30;99.90;;;;;;5030222;28;20180;-71
2022/09/14 11:08:16;;;;;;;5.70;1.80;;;23.20;99.90;;;;;;5012777;28;20191;-70
2022/09/14 11:10:51;;;;;;;31.15;15.95;;;23.20;99.90;;;;;;5035267;28;20211;-70
2022/09/14 11:13:36;;;;;;;22.85;13.95;;;23.50;99.90;;;;;;5031074;23;20192;-74
2022/09/14 11:16:20;;;;;;;11.48;5.22;;;23.30;99.90;;;;;;5066860;28;20246;-74
2022/09/14 11:18:59;;;;;;;8.07;3.10;;;22.90;99.90;;;;;;5087739;28;20276;-74
2022/09/14 11:21:39;;;;;;;7.05;2.33;;;22.70;99.90;;;;;;5087100;28;20228;-74
2022/09/14 11:24:20;;;;;;;7.38;3.22;;;22.40;99.90;;;;;;5086308;28;20206;-74
2022/09/14 11:27:01;;;;;;;6.68;2.80;;;22.30;99.90;;;;;;5085742;28;20255;-74
2022/09/14 11:29:46;;;;;;;7.70;2.20;;;22.10;99.90;;;;;;5084522;28;20174;-74
2022/09/14 11:32:36;;;;;;;16.33;10.15;;;22.00;99.90;;;;;;5084755;28;20221;-74
2022/09/14 11:35:20;;;;;;;7.68;3.25;;;22.00;99.90;;;;;;5084892;28;20309;-75
2022/09/14 11:37:49;;;;;;;7.53;2.75;;;21.70;99.90;;;;;;5085854;28;20202;-73
2022/09/14 11:40:23;;;;;;;7.28;2.33;;;21.80;99.90;;;;;;5083461;28;20207;-72
2022/09/14 11:43:09;;;;;;;12.48;6.10;;;21.80;99.90;;;;;;5060412;28;20201;-70
2022/09/14 11:46:11;;;;;;;8.70;2.22;;;22.00;99.90;;;;;;5087871;28;20765;-75
2022/09/14 11:49:07;;;;;;;8.90;4.25;;;22.20;99.90;;;;;;5082714;28;20582;-74
2022/09/14 11:51:49;;;;;;;6.20;2.53;;;22.30;99.90;;;;;;5086714;28;20233;-73
2022/09/14 11:54:20;;;;;;;6.10;2.00;;;22.00;99.90;;;;;;5070288;28;20214;-70
2022/09/14 11:56:54;;;;;;;8.80;2.00;;;21.70;99.90;;;;;;5082749;28;20213;-70
2022/09/14 11:59:41;;;;;;;7.15;2.05;;;21.70;99.90;;;;;;5080676;28;20191;-69
2022/09/14 12:02:21;;;;;;;6.30;2.00;;;21.70;99.90;;;;;;5087038;28;20202;-70
2022/09/14 12:05:09;;;;;;;7.47;3.65;;;21.40;99.90;;;;;;5085198;28;20515;-69
2022/09/14 12:07:46;;;;;;;7.30;3.63;;;21.50;99.90;;;;;;5071609;28;20319;-70
2022/09/14 12:10:17;;;;;;;7.35;2.05;;;21.60;99.90;;;;;;5085029;28;20214;-69
2022/09/14 12:12:55;;;;;;;4.63;2.45;;;21.60;99.90;;;;;;5088004;28;20288;-69
2022/09/14 12:15:32;;;;;;;4.47;1.85;;;21.60;99.90;;;;;;5083290;28;20298;-72
2022/09/14 12:18:04;;;;;;;3.20;1.85;;;21.40;99.90;;;;;;5086845;28;20238;-69
2022/09/14 12:20:37;;;;;;;3.58;1.65;;;21.50;99.90;;;;;;5087336;28;20684;-69
2022/09/14 12:23:16;;;;;;;3.00;1.70;;;21.50;99.90;;;;;;5085085;28;20178;-69
2022/09/14 12:26:00;;;;;;;8.27;2.13;;;21.60;99.90;;;;;;5085800;28;20202;-69
2022/09/14 12:28:38;;;;;;;5.55;1.77;;;21.40;99.90;;;;;;5084724;28;20215;-69
2022/09/14 12:31:03;;;;;;;5.60;1.63;;;21.50;99.90;;;;;;5087044;28;20676;-69
2022/09/14 12:36:37;;;;;;;6.15;1.73;;;21.50;99.90;;;;;;5088480;28;20210;-69
2022/09/14 12:39:19;;;;;;;5.40;2.10;;;21.50;99.90;;;;;;5064296;28;20222;-69
2022/09/14 12:41:45;;;;;;;3.55;1.40;;;21.60;99.90;;;;;;5065295;28;20589;-70
2022/09/14 12:44:41;;;;;;;6.15;3.00;;;21.40;99.90;;;;;;5065582;28;20289;-69
2022/09/14 12:47:24;;;;;;;5.25;2.22;;;21.20;99.90;;;;;;5085508;28;20245;-69
2022/09/14 12:49:53;;;;;;;5.68;2.15;;;21.20;99.90;;;;;;5085289;28;20281;-69
2022/09/14 12:52:41;;;;;;;4.25;2.00;;;21.30;99.90;;;;;;5086710;28;20258;-69
2022/09/14 12:55:34;;;;;;;7.15;1.70;;;21.50;99.90;;;;;;5070601;28;20268;-69
2022/09/14 12:58:26;;;;;;;5.13;2.42;;;21.70;99.90;;;;;;5082553;28;20202;-69
2022/09/14 13:01:14;;;;;;;4.40;1.98;;;21.80;99.90;;;;;;5028710;28;20233;-69
2022/09/14 13:03:54;;;;;;;7.40;2.13;;;21.90;99.90;;;;;;5088608;28;20206;-69
2022/09/14 13:06:22;;;;;;;6.70;1.40;;;22.10;99.90;;;;;;5084914;28;20194;-69
2022/09/14 13:08:52;;;;;;;6.18;2.08;;;21.90;99.90;;;;;;5087285;28;20238;-69
2022/09/14 13:11:37;;;;;;;7.13;2.10;;;21.90;99.90;;;;;;5088340;28;20592;-69
2022/09/14 13:14:03;;;;;;;6.38;2.28;;;21.70;99.90;;;;;;5080605;28;20632;-69